Time;durP1;ratioP1;P1;durP2;ratioP2;P2;SDS_P1;SDS_P2;PMS_P1;PMS_P2;Temp;Humidity;BMP_temperature;BMP_pressure;BME280_temperature;BME280_humidity;BME280_pressure;Samples;Min_cycle;Max_cycle;Signal;HPM_P1;HPM_P2
2023/08/09 00:01:50;;;;;;;5.60;3.08;;;;;;;15.46;90.18;100730.97;5034507;28;20045;-46
2023/08/09 00:04:16;;;;;;;7.13;3.47;;;;;;;15.47;90.22;100732.56;5033889;28;20091;-46
2023/08/09 00:06:43;;;;;;;5.38;3.15;;;;;;;15.47;90.18;100735.34;5034391;28;20136;-45
2023/08/09 00:09:10;;;;;;;7.32;4.15;;;;;;;15.47;90.24;100740.94;5034275;28;20037;-48
2023/08/09 00:11:37;;;;;;;5.47;3.45;;;;;;;15.44;90.01;100745.25;5034342;28;20602;-44
2023/08/09 00:14:04;;;;;;;4.80;3.72;;;;;;;15.44;90.03;100736.06;5033789;28;20046;-45
2023/08/09 00:16:31;;;;;;;6.35;3.20;;;;;;;15.43;90.13;100740.88;5033983;28;20045;-45
2023/08/09 00:18:58;;;;;;;4.25;3.08;;;;;;;15.41;90.20;100736.84;5032816;28;20045;-45
2023/08/09 00:21:25;;;;;;;5.47;3.38;;;;;;;15.40;90.28;100746.38;5032483;28;20403;-44
2023/08/09 00:23:52;;;;;;;7.75;3.05;;;;;;;15.42;90.30;100755.97;5033615;28;20072;-45
2023/08/09 00:26:18;;;;;;;9.02;3.55;;;;;;;15.43;90.34;100762.38;5033539;28;20511;-45
2023/08/09 00:28:45;;;;;;;6.15;2.97;;;;;;;15.48;90.44;100756.50;5033723;28;20046;-46
2023/08/09 00:31:12;;;;;;;6.63;3.20;;;;;;;15.47;90.58;100769.63;5033338;28;20056;-45
2023/08/09 00:33:39;;;;;;;4.97;3.10;;;;;;;15.48;90.27;100770.44;5033762;28;20412;-46
2023/08/09 00:36:06;;;;;;;5.20;3.53;;;;;;;15.48;90.51;100779.63;5033689;28;20172;-46
2023/08/09 00:38:34;;;;;;;7.32;4.18;;;;;;;15.49;90.46;100784.00;5033854;28;20132;-45
2023/08/09 00:41:01;;;;;;;6.13;3.97;;;;;;;15.48;90.58;100790.78;5033473;28;20103;-45
2023/08/09 00:43:28;;;;;;;9.75;4.05;;;;;;;15.48;90.49;100788.00;5033370;28;20063;-45
2023/08/09 00:45:55;;;;;;;8.18;3.17;;;;;;;15.48;90.40;100792.75;5032603;28;20057;-46
2023/08/09 00:48:23;;;;;;;7.55;3.17;;;;;;;15.48;90.47;100787.19;5032338;28;20715;-47
2023/08/09 00:50:50;;;;;;;5.47;3.08;;;;;;;15.48;90.49;100792.75;5033432;28;20132;-49
2023/08/09 00:53:17;;;;;;;4.72;3.17;;;;;;;15.46;90.67;100784.75;5020478;28;20052;-44
2023/08/09 00:55:45;;;;;;;4.65;2.60;;;;;;;15.48;90.57;100787.19;5033586;28;20684;-45
2023/08/09 00:58:12;;;;;;;6.18;2.30;;;;;;;15.49;90.56;100788.81;5033403;28;20033;-45
2023/08/09 01:00:39;;;;;;;6.25;2.80;;;;;;;15.48;90.39;100784.41;5032637;28;20041;-46
2023/08/09 01:03:06;;;;;;;8.57;2.85;;;;;;;15.48;90.48;100785.22;5033107;28;20041;-45
2023/08/09 01:05:45;;;;;;;5.95;2.72;;;;;;;15.50;90.58;100779.22;5032914;28;20042;-45
2023/08/09 01:08:24;;;;;;;7.55;3.30;;;;;;;15.50;90.69;100773.66;5033464;28;20484;-45
2023/08/09 01:11:01;;;;;;;8.18;2.65;;;;;;;15.48;90.75;100776.03;5033189;28;20067;-45
2023/08/09 01:13:29;;;;;;;5.18;2.40;;;;;;;15.50;90.69;100768.06;5030670;28;20041;-44
2023/08/09 01:15:59;;;;;;;6.63;3.35;;;;;;;15.50;90.67;100762.50;5020111;28;20416;-48
2023/08/09 01:18:27;;;;;;;11.93;5.00;;;;;;;15.52;90.69;100760.13;5032974;28;20089;-45
2023/08/09 01:20:54;;;;;;;8.93;3.38;;;;;;;15.49;90.68;100760.91;5034462;28;20111;-45
2023/08/09 01:23:20;;;;;;;3.50;2.65;;;;;;;15.50;90.72;100763.31;5032681;28;20037;-44
2023/08/09 01:25:48;;;;;;;4.03;2.38;;;;;;;15.52;90.49;100760.13;5032692;28;20058;-46
2023/08/09 01:28:16;;;;;;;10.10;2.60;;;;;;;15.52;90.31;100757.34;5031087;28;20049;-45
2023/08/09 01:30:45;;;;;;;5.95;2.20;;;;;;;15.52;90.44;100744.19;5032962;28;20136;-45
2023/08/09 01:33:14;;;;;;;3.85;2.08;;;;;;;15.53;90.38;100750.56;5032806;28;20773;-45
2023/08/09 01:35:49;;;;;;;4.55;2.42;;;;;;;15.53;90.45;100759.75;5032582;28;20045;-44
2023/08/09 01:38:26;;;;;;;3.80;2.33;;;;;;;15.52;90.38;100760.13;5031316;28;20101;-45
2023/08/09 01:40:54;;;;;;;2.85;2.00;;;;;;;15.53;90.13;100762.56;5031811;28;20121;-45
2023/08/09 01:43:22;;;;;;;7.40;3.28;;;;;;;15.53;90.33;100756.16;5032168;28;20044;-47
2023/08/09 01:45:50;;;;;;;3.15;2.33;;;;;;;15.55;90.24;100753.78;5032317;28;20423;-45
2023/08/09 01:48:17;;;;;;;3.55;2.10;;;;;;;15.55;90.30;100757.38;5030951;28;20038;-47
2023/08/09 01:50:45;;;;;;;3.72;1.98;;;;;;;15.56;90.56;100761.81;5032327;28;20053;-45
2023/08/09 01:53:12;;;;;;;3.85;2.17;;;;;;;15.57;90.69;100763.38;5032271;28;20041;-47
2023/08/09 01:55:40;;;;;;;5.55;2.30;;;;;;;15.60;90.68;100759.03;5032200;28;20049;-45
2023/08/09 01:58:07;;;;;;;6.03;1.90;;;;;;;15.59;90.71;100763.03;5032232;28;20144;-44
2023/08/09 02:00:34;;;;;;;6.43;2.35;;;;;;;15.59;90.88;100765.81;5032037;28;20078;-47
2023/08/09 02:03:02;;;;;;;5.93;2.35;;;;;;;15.59;90.95;100768.59;5019112;28;20069;-46
2023/08/09 02:05:29;;;;;;;4.05;2.00;;;;;;;15.59;90.95;100771.41;5031344;28;20048;-45
2023/08/09 02:07:56;;;;;;;4.47;3.17;;;;;;;15.58;91.09;100772.56;5031222;28;20545;-45
2023/08/09 02:10:23;;;;;;;3.53;2.30;;;;;;;15.59;91.19;100776.97;5031717;28;20096;-45
2023/08/09 02:12:50;;;;;;;2.72;1.77;;;;;;;15.59;91.25;100766.63;5030976;28;20072;-45
2023/08/09 02:15:19;;;;;;;4.07;1.52;;;;;;;15.61;91.18;100769.03;5029675;28;20137;-47
2023/08/09 02:17:48;;;;;;;2.03;1.77;;;;;;;15.61;91.19;100774.59;5032057;28;20124;-44
2023/08/09 02:20:16;;;;;;;2.40;2.05;;;;;;;15.61;91.44;100786.59;5031682;28;20144;-45
2023/08/09 02:22:43;;;;;;;2.20;2.00;;;;;;;15.60;91.61;100776.59;5031743;28;20045;-44
2023/08/09 02:25:10;;;;;;;4.13;2.00;;;;;;;15.62;91.81;100781.81;5031657;28;20053;-44
2023/08/09 02:27:39;;;;;;;2.97;2.25;;;;;;;15.61;91.78;100772.63;5031971;28;20049;-45
2023/08/09 02:30:07;;;;;;;4.53;1.80;;;;;;;15.62;92.22;100777.00;5031281;28;20065;-46
2023/08/09 02:32:34;;;;;;;1.85;1.67;;;;;;;15.61;92.03;100780.19;5031626;28;20049;-45
2023/08/09 02:35:02;;;;;;;5.30;1.88;;;;;;;15.62;92.34;100779.03;5031354;28;20044;-46
2023/08/09 02:37:29;;;;;;;2.33;1.92;;;;;;;15.62;92.52;100779.03;5030627;28;20056;-46
2023/08/09 02:39:56;;;;;;;2.63;2.03;;;;;;;15.60;92.74;100779.38;5031368;28;20044;-45
2023/08/09 02:42:23;;;;;;;2.60;1.65;;;;;;;15.61;92.78;100788.56;5030518;28;20060;-46
2023/08/09 02:44:50;;;;;;;3.20;1.75;;;;;;;15.60;92.91;100770.19;5031114;28;20073;-48
2023/08/09 02:47:17;;;;;;;4.13;2.33;;;;;;;15.60;93.13;100778.56;5030874;28;20045;-46
2023/08/09 02:49:44;;;;;;;2.20;1.92;;;;;;;15.59;93.37;100765.81;5031434;28;20100;-45
2023/08/09 02:52:11;;;;;;;3.65;2.10;;;;;;;15.58;93.57;100764.19;5031177;28;20053;-47
2023/08/09 02:54:38;;;;;;;5.25;2.28;;;;;;;15.58;93.67;100751.06;5031181;28;20049;-47
2023/08/09 02:57:08;;;;;;;3.28;2.05;;;;;;;15.57;93.72;100745.84;5031262;28;20042;-45
2023/08/09 02:59:35;;;;;;;2.65;1.73;;;;;;;15.57;93.69;100752.22;5022360;28;20088;-45
2023/08/09 03:02:03;;;;;;;3.05;1.80;;;;;;;15.58;93.67;100742.69;5031175;28;20447;-45
2023/08/09 03:04:30;;;;;;;2.85;2.00;;;;;;;15.59;93.94;100749.88;5029788;28;20053;-44
2023/08/09 03:06:57;;;;;;;2.15;1.95;;;;;;;15.57;94.05;100755.03;5031030;28;20085;-45
2023/08/09 03:09:26;;;;;;;3.55;1.90;;;;;;;15.56;94.12;100750.63;5031045;28;20053;-44
2023/08/09 03:11:53;;;;;;;2.33;1.70;;;;;;;15.57;94.20;100745.84;5031283;28;20100;-45
2023/08/09 03:14:20;;;;;;;3.47;1.98;;;;;;;15.58;94.32;100755.81;5030971;28;20144;-47
2023/08/09 03:16:47;;;;;;;1.95;1.55;;;;;;;15.57;94.36;100768.97;5029952;28;20496;-45
2023/08/09 03:19:14;;;;;;;2.72;1.90;;;;;;;15.58;94.47;100769.78;5016532;28;20672;-46
2023/08/09 03:21:41;;;;;;;2.22;2.03;;;;;;;15.58;94.65;100776.16;5024977;28;20049;-48
2023/08/09 03:24:08;;;;;;;2.45;1.55;;;;;;;15.59;94.57;100779.78;5032920;28;20128;-45
2023/08/09 03:26:35;;;;;;;4.93;1.60;;;;;;;15.61;94.64;100785.78;5034717;28;20119;-46
2023/08/09 03:29:02;;;;;;;2.42;1.73;;;;;;;15.60;94.62;100782.16;5034859;28;20403;-48
2023/08/09 03:31:30;;;;;;;1.88;1.70;;;;;;;15.59;94.99;100788.16;5033357;28;20044;-46
2023/08/09 03:34:00;;;;;;;2.75;2.35;;;;;;;15.59;95.01;100775.00;5034950;28;20045;-44
2023/08/09 03:36:29;;;;;;;2.05;1.70;;;;;;;15.61;95.07;100782.97;5034534;28;20064;-46
2023/08/09 03:38:57;;;;;;;4.53;1.70;;;;;;;15.61;95.32;100781.00;5034925;28;20053;-45
2023/08/09 03:41:25;;;;;;;2.38;2.17;;;;;;;15.62;95.35;100785.38;5034809;28;21339;-44
2023/08/09 03:43:52;;;;;;;2.03;1.83;;;;;;;15.63;95.38;100777.81;5034667;28;20045;-46
2023/08/09 03:46:19;;;;;;;2.42;1.77;;;;;;;15.62;95.35;100770.66;5034649;28;20049;-45
2023/08/09 03:48:46;;;;;;;2.17;1.65;;;;;;;15.62;95.36;100777.00;5034755;28;20103;-45
2023/08/09 03:51:13;;;;;;;1.83;1.65;;;;;;;15.61;95.67;100786.59;5034496;28;20559;-45
2023/08/09 03:53:40;;;;;;;2.38;1.60;;;;;;;15.59;95.74;100786.16;5034893;28;20045;-45
2023/08/09 03:56:06;;;;;;;3.45;1.73;;;;;;;15.60;95.96;100790.53;5034477;28;20395;-45
2023/08/09 03:58:33;;;;;;;2.42;2.17;;;;;;;15.59;96.10;100782.56;5033527;28;20056;-45
2023/08/09 04:01:01;;;;;;;2.30;1.67;;;;;;;15.60;96.40;100784.16;5034129;28;20065;-45
2023/08/09 04:03:28;;;;;;;2.40;1.60;;;;;;;15.61;96.07;100782.97;5034501;28;20499;-46
2023/08/09 04:05:55;;;;;;;2.20;1.73;;;;;;;15.59;96.30;100783.38;5034191;28;20069;-45
2023/08/09 04:08:26;;;;;;;2.60;2.40;;;;;;;15.60;96.41;100789.72;5034326;28;20041;-45
2023/08/09 04:10:54;;;;;;;4.70;1.77;;;;;;;15.59;96.50;100775.00;5032613;28;20095;-45
2023/08/09 04:13:21;;;;;;;4.60;1.60;;;;;;;15.60;96.71;100773.00;5034341;28;20657;-45
2023/08/09 04:15:48;;;;;;;3.03;2.10;;;;;;;15.59;97.21;100782.56;5034017;28;20488;-44
2023/08/09 04:18:16;;;;;;;2.95;2.15;;;;;;;15.58;96.93;100787.34;5034368;28;20103;-46
2023/08/09 04:20:45;;;;;;;2.78;1.73;;;;;;;15.59;97.18;100779.78;5033958;28;20065;-45
2023/08/09 04:23:14;;;;;;;2.47;1.60;;;;;;;15.57;97.29;100768.16;5033102;28;20056;-46
2023/08/09 04:25:41;;;;;;;3.22;1.83;;;;;;;15.57;97.28;100779.31;5033818;28;20053;-44
2023/08/09 04:28:08;;;;;;;3.47;2.05;;;;;;;15.57;97.36;100774.56;5031773;28;20056;-46
2023/08/09 04:30:37;;;;;;;4.68;1.80;;;;;;;15.57;97.72;100777.34;5033813;28;20455;-45
2023/08/09 04:33:04;;;;;;;2.25;1.70;;;;;;;15.56;97.66;100778.53;5033649;28;20068;-45
2023/08/09 04:35:33;;;;;;;2.55;1.85;;;;;;;15.56;97.95;100783.31;5033279;28;20407;-46
2023/08/09 04:38:03;;;;;;;2.90;2.13;;;;;;;15.55;97.95;100781.69;5033516;28;20047;-45
2023/08/09 04:40:31;;;;;;;2.20;1.90;;;;;;;15.54;98.08;100783.69;5033765;28;20496;-45
2023/08/09 04:42:58;;;;;;;1.90;1.60;;;;;;;15.54;98.12;100785.69;5033437;28;20049;-45
2023/08/09 04:45:26;;;;;;;3.28;1.67;;;;;;;15.53;98.27;100784.06;5033437;28;20048;-45
2023/08/09 04:47:53;;;;;;;2.53;2.30;;;;;;;15.53;98.32;100781.28;5033609;28;20496;-46
2023/08/09 04:50:21;;;;;;;1.98;1.50;;;;;;;15.52;98.46;100782.44;5031853;28;20507;-45
2023/08/09 04:52:49;;;;;;;3.72;2.60;;;;;;;15.51;98.58;100795.63;5033476;28;20142;-45
2023/08/09 04:55:16;;;;;;;2.50;1.92;;;;;;;15.52;98.74;100796.41;5033362;28;20037;-46
2023/08/09 04:57:43;;;;;;;2.67;1.98;;;;;;;15.52;98.83;100799.19;5033547;28;20083;-45
2023/08/09 05:00:10;;;;;;;3.05;1.85;;;;;;;15.50;98.77;100790.41;5033243;28;20538;-45
2023/08/09 05:02:38;;;;;;;4.13;2.05;;;;;;;15.52;98.91;100793.59;5032739;28;20049;-45
2023/08/09 05:05:09;;;;;;;2.35;1.70;;;;;;;15.53;99.01;100803.59;5031300;28;20045;-46
2023/08/09 05:07:37;;;;;;;2.50;1.90;;;;;;;15.53;99.05;100807.19;5033438;28;20045;-47
2023/08/09 05:10:09;;;;;;;2.20;2.00;;;;;;;15.53;99.11;100806.38;5033120;28;20041;-45
2023/08/09 05:12:36;;;;;;;1.98;1.88;;;;;;;15.54;99.23;100813.59;5027198;28;20045;-45
2023/08/09 05:15:03;;;;;;;2.38;2.17;;;;;;;15.52;99.40;100815.94;5026007;28;20041;-45
2023/08/09 05:17:31;;;;;;;3.50;2.55;;;;;;;15.54;99.64;100819.16;5033341;28;20059;-46
2023/08/09 05:19:57;;;;;;;2.15;1.58;;;;;;;15.56;99.82;100827.97;5032403;28;20091;-49
2023/08/09 05:22:24;;;;;;;4.10;1.92;;;;;;;15.57;99.86;100826.75;5032926;28;20048;-47
2023/08/09 05:24:51;;;;;;;4.63;2.35;;;;;;;15.58;99.93;100815.25;5032637;28;20049;-45
2023/08/09 05:27:18;;;;;;;2.22;2.00;;;;;;;15.60;99.77;100818.44;5033213;28;20057;-46
2023/08/09 05:29:45;;;;;;;4.25;2.40;;;;;;;15.62;100.00;100813.28;5032673;28;20403;-46
2023/08/09 05:32:13;;;;;;;2.85;2.25;;;;;;;15.63;100.00;100820.50;5031895;28;20049;-46
2023/08/09 05:34:39;;;;;;;6.32;3.45;;;;;;;15.65;100.00;100825.69;5032587;28;20041;-45
2023/08/09 05:37:06;;;;;;;2.58;1.90;;;;;;;15.66;100.00;100818.94;5030538;28;20049;-47
2023/08/09 05:39:33;;;;;;;3.38;2.55;;;;;;;15.66;100.00;100818.94;5031300;28;20407;-46
2023/08/09 05:42:00;;;;;;;4.55;2.35;;;;;;;15.70;100.00;100817.78;5032826;28;20049;-45
2023/08/09 05:44:27;;;;;;;5.45;3.45;;;;;;;15.73;100.00;100825.41;5031598;28;20132;-44
2023/08/09 05:46:54;;;;;;;3.88;2.45;;;;;;;15.79;100.00;100828.69;5032820;28;20038;-45
2023/08/09 05:49:21;;;;;;;3.00;2.42;;;;;;;15.82;100.00;100831.53;5032059;28;20045;-46
2023/08/09 05:51:48;;;;;;;2.47;2.22;;;;;;;15.87;100.00;100835.16;5032394;28;20033;-45
2023/08/09 05:54:15;;;;;;;4.85;2.47;;;;;;;15.87;100.00;100833.19;5032136;28;20136;-45
2023/08/09 05:56:42;;;;;;;4.47;2.40;;;;;;;15.90;100.00;100828.81;5032379;28;20091;-45
2023/08/09 05:59:10;;;;;;;5.32;2.47;;;;;;;15.89;100.00;100830.81;5032397;28;20140;-45
2023/08/09 06:01:37;;;;;;;4.63;3.35;;;;;;;15.91;100.00;100822.88;5031880;28;20049;-47
2023/08/09 06:04:04;;;;;;;5.15;2.55;;;;;;;15.92;100.00;100824.47;5030026;28;20053;-45
2023/08/09 06:06:31;;;;;;;4.80;3.13;;;;;;;15.93;100.00;100826.09;5032242;28;20566;-45
2023/08/09 06:08:59;;;;;;;4.40;2.35;;;;;;;15.95;100.00;100818.13;5031102;28;21514;-45
2023/08/09 06:11:43;;;;;;;3.47;2.58;;;;;;;15.98;100.00;100822.97;5024175;28;20489;-45
2023/08/09 06:14:11;;;;;;;3.95;2.28;;;;;;;16.00;100.00;100826.16;5031919;28;20069;-47
2023/08/09 06:16:38;;;;;;;4.50;2.65;;;;;;;16.02;100.00;100825.81;5032067;28;20151;-47
2023/08/09 06:19:05;;;;;;;4.70;2.63;;;;;;;16.04;100.00;100829.81;5031692;28;20053;-45
2023/08/09 06:21:33;;;;;;;5.65;3.10;;;;;;;16.07;100.00;100822.69;5031893;28;20053;-48
2023/08/09 06:24:00;;;;;;;3.25;2.95;;;;;;;16.09;100.00;100829.47;5030938;28;20047;-53
2023/08/09 06:26:27;;;;;;;3.20;2.90;;;;;;;16.12;100.00;100831.53;5024513;28;20503;-46
2023/08/09 06:28:55;;;;;;;2.67;2.40;;;;;;;16.14;100.00;100840.31;5020306;28;20045;-46
2023/08/09 06:31:22;;;;;;;4.78;2.35;;;;;;;16.14;100.00;100831.94;5028333;28;20045;-45
2023/08/09 06:33:49;;;;;;;5.10;2.83;;;;;;;16.16;100.00;100828.75;5031480;28;20107;-45
2023/08/09 06:36:17;;;;;;;2.47;2.28;;;;;;;16.18;100.00;100829.97;5030009;28;20514;-45
2023/08/09 06:38:44;;;;;;;5.25;2.78;;;;;;;16.23;100.00;100840.81;5031881;28;20045;-45
2023/08/09 06:41:11;;;;;;;4.50;2.63;;;;;;;16.27;100.00;100833.28;5030009;28;20111;-44
2023/08/09 06:43:40;;;;;;;4.07;2.75;;;;;;;16.28;100.00;100826.50;5031154;28;20442;-45
2023/08/09 06:46:07;;;;;;;3.58;2.50;;;;;;;16.29;100.00;100828.13;5031096;28;20115;-46
2023/08/09 06:48:35;;;;;;;3.20;2.63;;;;;;;16.31;100.00;100848.09;5039343;28;20052;-45
2023/08/09 06:51:02;;;;;;;3.72;2.28;;;;;;;16.32;100.00;100851.69;5035925;28;20088;-47
2023/08/09 06:53:29;;;;;;;10.27;2.70;;;;;;;16.32;100.00;100848.91;5031423;28;20373;-45
2023/08/09 06:55:56;;;;;;;5.07;2.38;;;;;;;16.32;100.00;100849.72;5030262;28;20045;-45
2023/08/09 06:58:24;;;;;;;2.67;2.22;;;;;;;16.35;100.00;100857.34;5030603;28;20582;-45
2023/08/09 07:00:53;;;;;;;4.30;2.80;;;;;;;16.39;100.00;100868.53;5031102;28;20057;-45
2023/08/09 07:03:21;;;;;;;3.95;2.40;;;;;;;16.44;100.00;100863.41;5031189;28;20466;-45
2023/08/09 07:05:49;;;;;;;6.82;3.00;;;;;;;16.49;100.00;100864.28;5031326;28;20052;-47
2023/08/09 07:08:16;;;;;;;4.80;3.08;;;;;;;16.47;100.00;100856.25;5031124;28;20429;-46
2023/08/09 07:10:43;;;;;;;4.63;2.88;;;;;;;16.47;100.00;100861.84;5030852;28;20042;-45
2023/08/09 07:13:11;;;;;;;6.28;2.70;;;;;;;16.48;100.00;100857.06;5030861;28;20128;-46
2023/08/09 07:15:39;;;;;;;2.92;2.63;;;;;;;16.49;100.00;100862.28;5028294;28;20052;-46
2023/08/09 07:18:07;;;;;;;6.45;2.63;;;;;;;16.53;100.00;100865.13;5030457;28;20049;-46
2023/08/09 07:20:34;;;;;;;3.58;2.38;;;;;;;16.58;100.00;100868.41;5029888;28;20045;-45
2023/08/09 07:23:01;;;;;;;4.88;2.85;;;;;;;16.63;100.00;100864.44;5028761;28;20140;-46
2023/08/09 07:25:28;;;;;;;3.00;2.20;;;;;;;16.69;100.00;100862.91;5030914;28;20084;-45
2023/08/09 07:27:58;;;;;;;5.35;2.78;;;;;;;16.74;100.00;100870.94;5031073;28;20434;-46
2023/08/09 07:30:24;;;;;;;2.95;2.53;;;;;;;16.73;100.00;100870.16;5019564;28;20061;-45
2023/08/09 07:32:51;;;;;;;6.18;2.58;;;;;;;16.76;100.00;100879.78;5030758;28;20049;-46
2023/08/09 07:35:18;;;;;;;10.15;2.78;;;;;;;16.80;100.00;100867.44;5030936;28;20053;-44
2023/08/09 07:37:46;;;;;;;5.40;3.10;;;;;;;16.84;99.93;100876.66;5030834;28;20046;-45
2023/08/09 07:40:14;;;;;;;4.72;2.55;;;;;;;16.88;99.90;100882.28;5017946;28;20048;-45
2023/08/09 07:42:42;;;;;;;6.10;2.50;;;;;;;16.91;99.83;100885.13;5030741;28;20426;-44
2023/08/09 07:45:10;;;;;;;4.40;3.08;;;;;;;16.93;99.70;100888.34;5030830;28;20521;-44
2023/08/09 07:47:37;;;;;;;4.57;2.75;;;;;;;16.95;99.64;100882.34;5028381;28;20045;-46
2023/08/09 07:50:05;;;;;;;3.83;3.42;;;;;;;16.98;99.48;100887.19;5017679;28;20694;-44
2023/08/09 07:52:33;;;;;;;4.05;2.50;;;;;;;17.01;99.48;100889.22;5030537;28;20048;-44
2023/08/09 07:54:59;;;;;;;7.50;2.58;;;;;;;17.05;99.47;100892.84;5030836;28;20041;-43
2023/08/09 07:57:26;;;;;;;6.93;3.70;;;;;;;17.13;99.44;100894.50;5030578;28;20044;-42
2023/08/09 07:59:53;;;;;;;6.40;2.88;;;;;;;17.19;99.26;100909.75;5030513;28;20048;-43
2023/08/09 08:02:28;;;;;;;7.10;2.97;;;;;;;17.24;99.22;100895.41;5028960;28;20054;-43
2023/08/09 08:04:55;;;;;;;4.43;2.50;;;;;;;17.27;99.08;100900.25;5030869;28;20041;-44
2023/08/09 08:07:23;;;;;;;5.88;2.72;;;;;;;17.30;98.85;100896.66;5030295;28;20054;-44
2023/08/09 08:09:50;;;;;;;3.28;2.75;;;;;;;17.33;98.86;100903.50;5030440;28;20045;-45
2023/08/09 08:12:16;;;;;;;5.78;2.50;;;;;;;17.35;99.14;100903.91;5034030;28;20092;-47
2023/08/09 08:14:49;;;;;;;7.82;2.90;;;;;;;17.40;99.15;100909.94;5031753;28;20044;-46
2023/08/09 08:17:16;;;;;;;4.97;2.80;;;;;;;17.46;99.23;100905.59;5033919;28;20053;-45
2023/08/09 08:19:43;;;;;;;5.05;2.90;;;;;;;17.53;99.08;100914.06;5034068;28;20087;-48
2023/08/09 08:22:11;;;;;;;2.38;2.17;;;;;;;17.61;98.88;100915.75;5033862;28;20049;-46
2023/08/09 08:24:39;;;;;;;6.07;2.60;;;;;;;17.71;98.61;100916.22;5033588;28;20045;-44
2023/08/09 08:27:06;;;;;;;3.50;2.30;;;;;;;17.79;98.63;100920.69;5033742;28;20038;-46
2023/08/09 08:29:33;;;;;;;3.63;2.60;;;;;;;17.89;98.36;100914.34;5034019;28;20041;-45
2023/08/09 08:32:00;;;;;;;7.00;4.03;;;;;;;18.03;98.05;100922.84;5029945;28;20056;-48
2023/08/09 08:34:31;;;;;;;6.45;2.47;;;;;;;18.14;97.86;100916.09;5032590;28;20060;-46
2023/08/09 08:36:59;;;;;;;5.20;2.72;;;;;;;18.21;97.58;100915.31;5033836;28;20052;-47
2023/08/09 08:39:28;;;;;;;6.20;2.67;;;;;;;18.31;97.65;100908.97;5034002;28;20095;-45
2023/08/09 08:41:57;;;;;;;5.18;2.20;;;;;;;18.42;97.39;100909.81;5031101;28;20041;-43
2023/08/09 08:44:25;;;;;;;7.45;2.10;;;;;;;18.54;97.13;100911.47;5033413;28;20071;-44
2023/08/09 08:46:52;;;;;;;4.57;1.95;;;;;;;18.69;96.77;100913.94;5020889;28;20042;-45
2023/08/09 08:49:24;;;;;;;6.82;2.70;;;;;;;18.90;96.63;100915.22;5033523;28;20056;-44
2023/08/09 08:51:55;;;;;;;5.05;2.00;;;;;;;19.13;96.19;100912.84;5033879;28;20442;-44
2023/08/09 08:54:23;;;;;;;5.88;2.33;;;;;;;19.32;95.97;100912.47;5032956;28;20041;-44
2023/08/09 08:56:51;;;;;;;2.67;2.25;;;;;;;19.59;95.48;100926.94;5033386;28;20203;-44
2023/08/09 08:59:21;;;;;;;2.83;2.50;;;;;;;19.99;94.44;100913.22;5030222;28;20053;-44
2023/08/09 09:01:48;;;;;;;2.85;1.83;;;;;;;20.30;93.84;100922.00;5031923;28;20463;-44
2023/08/09 09:04:15;;;;;;;4.15;2.42;;;;;;;20.55;92.85;100922.69;5033485;28;20069;-47
2023/08/09 09:06:42;;;;;;;1.90;1.50;;;;;;;20.69;91.89;100910.56;5033077;28;20045;-45
2023/08/09 09:09:15;;;;;;;1.10;1.10;;;;;;;20.76;91.74;100922.59;5033270;28;20073;-45
2023/08/09 09:11:45;;;;;;;1.65;1.02;;;;;;;20.80;91.15;100920.56;5033193;28;20514;-44
2023/08/09 09:14:13;;;;;;;1.10;0.95;;;;;;;20.76;90.38;100911.34;5033263;28;20053;-45
2023/08/09 09:16:42;;;;;;;1.58;1.10;;;;;;;20.78;89.84;100917.38;5032493;28;20057;-49
2023/08/09 09:19:10;;;;;;;2.63;1.08;;;;;;;20.77;89.32;100918.56;5032785;28;20565;-46
2023/08/09 09:21:40;;;;;;;1.85;1.00;;;;;;;20.75;88.76;100926.63;5032599;28;20045;-44
2023/08/09 09:24:09;;;;;;;2.55;1.25;;;;;;;20.70;88.37;100929.88;5032683;28;20140;-48
2023/08/09 09:26:37;;;;;;;1.98;0.98;;;;;;;20.64;88.24;100925.88;5032210;28;20047;-44
2023/08/09 09:29:08;;;;;;;1.02;0.90;;;;;;;20.58;88.26;100927.50;5032735;28;20041;-44
2023/08/09 09:31:39;;;;;;;1.23;1.05;;;;;;;20.64;88.45;100921.06;5029384;28;20038;-44
2023/08/09 09:34:09;;;;;;;0.80;0.77;;;;;;;20.79;87.48;100927.41;5032636;28;20188;-44
2023/08/09 09:36:57;;;;;;;1.10;0.93;;;;;;;20.91;87.52;100920.50;5032716;28;20048;-45
2023/08/09 09:39:27;;;;;;;2.05;1.48;;;;;;;21.34;87.46;100916.19;5032576;28;20045;-43
2023/08/09 09:41:54;;;;;;;1.20;0.80;;;;;;;22.30;84.41;100919.72;5032940;28;20409;-44
2023/08/09 09:44:23;;;;;;;1.00;0.90;;;;;;;22.82;82.56;100919.50;5032215;28;20045;-49
2023/08/09 09:46:54;;;;;;;1.55;0.50;;;;;;;23.12;81.24;100913.81;5034552;28;20555;-44
2023/08/09 09:49:22;;;;;;;0.60;0.60;;;;;;;23.73;79.68;100922.13;5030984;28;20049;-44
2023/08/09 09:51:50;;;;;;;1.20;1.10;;;;;;;24.31;76.78;100924.28;5030601;28;20337;-44
2023/08/09 09:54:19;;;;;;;0.75;0.75;;;;;;;24.17;75.90;100916.84;5031669;28;20059;-46
2023/08/09 09:56:45;;;;;;;1.02;0.80;;;;;;;24.06;76.52;100921.91;5032170;28;20518;-45
2023/08/09 09:59:13;;;;;;;1.08;0.90;;;;;;;24.18;75.35;100934.63;5031943;28;20488;-44
2023/08/09 10:01:42;;;;;;;2.17;0.70;;;;;;;24.04;74.39;100924.34;5032218;28;20045;-44
2023/08/09 10:04:11;;;;;;;0.95;0.70;;;;;;;23.60;74.19;100922.75;5032066;28;20136;-45
2023/08/09 10:06:43;;;;;;;0.73;0.70;;;;;;;23.14;75.27;100927.50;5032416;28;20084;-46
2023/08/09 10:09:13;;;;;;;1.27;0.90;;;;;;;22.76;75.67;100924.03;5031913;28;20128;-45
2023/08/09 10:11:44;;;;;;;1.10;0.70;;;;;;;22.42;76.30;100919.16;5032115;28;20371;-46
2023/08/09 10:14:13;;;;;;;1.02;0.70;;;;;;;22.19;77.07;100923.88;5010765;28;20041;-44
2023/08/09 10:16:43;;;;;;;2.40;0.80;;;;;;;21.97;77.59;100928.97;5024771;28;20057;-42
2023/08/09 10:19:17;;;;;;;4.43;0.68;;;;;;;21.79;77.83;100919.81;5029696;28;20710;-44
2023/08/09 10:21:44;;;;;;;1.13;0.70;;;;;;;21.61;77.79;100927.66;5031791;28;20057;-49
2023/08/09 10:24:12;;;;;;;1.45;1.00;;;;;;;21.54;78.35;100925.72;5031690;28;20488;-49
2023/08/09 10:26:44;;;;;;;0.85;0.50;;;;;;;21.54;78.43;100931.34;5031474;28;20057;-50
2023/08/09 10:29:12;;;;;;;1.75;0.60;;;;;;;21.60;78.38;100921.25;5027000;28;20046;-49
2023/08/09 10:31:51;;;;;;;1.57;0.77;;;;;;;21.67;78.33;100926.81;5026123;28;20049;-49
2023/08/09 10:34:20;;;;;;;0.65;0.65;;;;;;;21.73;78.50;100921.53;5028370;28;20049;-53
2023/08/09 10:36:53;;;;;;;1.15;0.93;;;;;;;21.81;78.48;100928.69;5029993;28;20045;-49
2023/08/09 10:39:21;;;;;;;3.58;0.90;;;;;;;21.83;78.76;100921.41;5031493;28;20136;-51
2023/08/09 10:41:54;;;;;;;0.65;0.57;;;;;;;21.95;78.91;100922.91;5031334;28;20088;-49
2023/08/09 10:44:31;;;;;;;1.08;0.77;;;;;;;22.11;78.30;100922.34;5031556;28;20107;-51
2023/08/09 10:47:05;;;;;;;0.60;0.60;;;;;;;22.13;78.39;100926.38;5015050;28;20045;-49
2023/08/09 10:49:44;;;;;;;1.63;0.60;;;;;;;22.15;78.64;100929.56;5027103;28;20050;-49
2023/08/09 10:52:13;;;;;;;0.98;0.52;;;;;;;22.10;78.80;100918.75;5031729;28;20131;-53
2023/08/09 10:54:44;;;;;;;1.17;0.52;;;;;;;22.10;78.76;100927.22;5031431;28;20380;-53
2023/08/09 10:57:12;;;;;;;1.98;0.50;;;;;;;22.21;78.70;100933.50;5031133;28;20041;-51
2023/08/09 10:59:41;;;;;;;0.88;0.57;;;;;;;22.37;78.37;100932.97;5029030;28;20068;-50
2023/08/09 11:02:09;;;;;;;2.13;0.90;;;;;;;22.49;78.24;100937.22;5030937;28;20034;-50
2023/08/09 11:04:36;;;;;;;1.42;0.40;;;;;;;22.60;78.10;100933.06;5031273;28;20415;-51
2023/08/09 11:07:03;;;;;;;0.77;0.50;;;;;;;22.82;77.27;100944.91;5030918;28;20045;-52
2023/08/09 11:09:30;;;;;;;3.28;0.60;;;;;;;22.92;77.14;100943.97;5031101;28;20049;-48
2023/08/09 11:11:57;;;;;;;6.97;2.55;;;;;;;22.98;77.21;100940.22;5031257;28;20057;-50
2023/08/09 11:14:24;;;;;;;1.00;0.82;;;;;;;23.00;77.15;100934.16;5030964;28;20037;-50
2023/08/09 11:16:52;;;;;;;1.25;0.60;;;;;;;23.06;76.92;100932.44;5030714;28;20069;-53
2023/08/09 11:19:29;;;;;;;0.77;0.75;;;;;;;22.99;77.02;100938.22;5019247;28;20099;-49
2023/08/09 11:22:02;;;;;;;1.58;0.52;;;;;;;22.95;76.86;100943.91;5018094;28;20133;-51
2023/08/09 11:24:30;;;;;;;0.60;0.60;;;;;;;22.93;77.01;100951.19;5029659;28;20049;-47
2023/08/09 11:27:00;;;;;;;1.05;0.60;;;;;;;22.95;76.78;100941.06;5028320;28;20041;-53
2023/08/09 11:29:28;;;;;;;2.92;1.08;;;;;;;22.99;76.81;100936.19;5030796;28;20172;-47